sensor_id;sensor_type;location;lat;lon;timestamp;temperature;humidity
70867;HTU21D;58487;53.474;49.470;2022-07-03T00:01:32;18.14;67.74
70867;HTU21D;58487;53.474;49.470;2022-07-03T00:03:58;18.04;68.21
70867;HTU21D;58487;53.474;49.470;2022-07-03T00:06:26;17.97;68.08
70867;HTU21D;58487;53.474;49.470;2022-07-03T00:08:52;18.02;67.62
70867;HTU21D;58487;53.474;49.470;2022-07-03T00:11:19;18.03;67.22
70867;HTU21D;58487;53.474;49.470;2022-07-03T00:13:45;18.10;66.73
70867;HTU21D;58487;53.474;49.470;2022-07-03T00:16:11;18.13;66.85
70867;HTU21D;58487;53.474;49.470;2022-07-03T00:18:38;18.17;66.62
70867;HTU21D;58487;53.474;49.470;2022-07-03T00:21:07;18.14;66.57
70867;HTU21D;58487;53.474;49.470;2022-07-03T00:23:43;18.05;67.46
70867;HTU21D;58487;53.474;49.470;2022-07-03T00:26:11;17.96;66.96
70867;HTU21D;58487;53.474;49.470;2022-07-03T00:28:40;17.91;67.20
70867;HTU21D;58487;53.474;49.470;2022-07-03T00:31:07;17.83;67.55
70867;HTU21D;58487;53.474;49.470;2022-07-03T00:33:35;17.84;67.46
70867;HTU21D;58487;53.474;49.470;2022-07-03T00:36:02;17.88;67.27
70867;HTU21D;58487;53.474;49.470;2022-07-03T00:38:28;17.85;67.57
70867;HTU21D;58487;53.474;49.470;2022-07-03T00:40:55;17.73;67.79
70867;HTU21D;58487;53.474;49.470;2022-07-03T00:43:21;17.59;68.10
70867;HTU21D;58487;53.474;49.470;2022-07-03T00:45:48;17.47;68.51
70867;HTU21D;58487;53.474;49.470;2022-07-03T00:48:17;17.28;69.00
70867;HTU21D;58487;53.474;49.470;2022-07-03T00:50:48;17.02;70.07
70867;HTU21D;58487;53.474;49.470;2022-07-03T00:53:27;16.93;70.46
70867;HTU21D;58487;53.474;49.470;2022-07-03T00:55:55;16.75;70.85
70867;HTU21D;58487;53.474;49.470;2022-07-03T00:58:22;16.66;71.06
70867;HTU21D;58487;53.474;49.470;2022-07-03T01:00:51;16.65;70.90
70867;HTU21D;58487;53.474;49.470;2022-07-03T01:03:19;16.76;70.71
70867;HTU21D;58487;53.474;49.470;2022-07-03T01:08:40;16.90;70.06
70867;HTU21D;58487;53.474;49.470;2022-07-03T01:19:39;16.93;73.84
70867;HTU21D;58487;53.474;49.470;2022-07-03T01:27:57;16.89;70.69
70867;HTU21D;58487;53.474;49.470;2022-07-03T01:30:26;16.87;71.88
70867;HTU21D;58487;53.474;49.470;2022-07-03T01:33:04;16.93;80.75
70867;HTU21D;58487;53.474;49.470;2022-07-03T01:35:36;16.91;73.48
70867;HTU21D;58487;53.474;49.470;2022-07-03T01:38:05;16.98;100.00
70867;HTU21D;58487;53.474;49.470;2022-07-03T01:40:33;17.09;71.63
70867;HTU21D;58487;53.474;49.470;2022-07-03T01:43:02;17.16;69.04
70867;HTU21D;58487;53.474;49.470;2022-07-03T01:45:31;17.26;68.48
70867;HTU21D;58487;53.474;49.470;2022-07-03T01:47:59;17.31;68.23
70867;HTU21D;58487;53.474;49.470;2022-07-03T01:50:28;17.40;67.81
70867;HTU21D;58487;53.474;49.470;2022-07-03T01:52:56;17.59;67.32
70867;HTU21D;58487;53.474;49.470;2022-07-03T01:55:30;17.63;67.88
70867;HTU21D;58487;53.474;49.470;2022-07-03T01:57:57;17.61;76.14
70867;HTU21D;58487;53.474;49.470;2022-07-03T02:00:23;17.46;83.60
70867;HTU21D;58487;53.474;49.470;2022-07-03T02:03:04;17.48;92.95
70867;HTU21D;58487;53.474;49.470;2022-07-03T02:05:34;17.98;66.10
70867;HTU21D;58487;53.474;49.470;2022-07-03T02:11:15;18.04;66.27
70867;HTU21D;58487;53.474;49.470;2022-07-03T02:13:50;18.11;65.83
70867;HTU21D;58487;53.474;49.470;2022-07-03T02:16:23;18.12;66.48
70867;HTU21D;58487;53.474;49.470;2022-07-03T02:19:05;18.10;66.40
70867;HTU21D;58487;53.474;49.470;2022-07-03T02:21:40;18.06;66.54
70867;HTU21D;58487;53.474;49.470;2022-07-03T02:24:22;18.06;66.48
70867;HTU21D;58487;53.474;49.470;2022-07-03T02:27:15;18.22;66.32
70867;HTU21D;58487;53.474;49.470;2022-07-03T02:30:01;18.34;66.09
70867;HTU21D;58487;53.474;49.470;2022-07-03T02:32:28;18.44;65.55
70867;HTU21D;58487;53.474;49.470;2022-07-03T02:35:06;18.43;65.72
70867;HTU21D;58487;53.474;49.470;2022-07-03T02:37:41;18.57;65.14
70867;HTU21D;58487;53.474;49.470;2022-07-03T02:40:20;18.69;65.27
70867;HTU21D;58487;53.474;49.470;2022-07-03T02:46:07;18.79;67.10
70867;HTU21D;58487;53.474;49.470;2022-07-03T02:48:59;18.65;66.87
70867;HTU21D;58487;53.474;49.470;2022-07-03T02:51:35;18.72;66.56
70867;HTU21D;58487;53.474;49.470;2022-07-03T02:54:09;18.81;66.65
70867;HTU21D;58487;53.474;49.470;2022-07-03T02:56:59;18.81;68.74
70867;HTU21D;58487;53.474;49.470;2022-07-03T02:59:52;18.96;66.72
70867;HTU21D;58487;53.474;49.470;2022-07-03T03:05:02;18.89;67.36
70867;HTU21D;58487;53.474;49.470;2022-07-03T03:07:38;19.03;66.74
70867;HTU21D;58487;53.474;49.470;2022-07-03T03:10:08;19.03;66.98
70867;HTU21D;58487;53.474;49.470;2022-07-03T03:12:41;19.11;66.78
70867;HTU21D;58487;53.474;49.470;2022-07-03T03:15:12;18.79;74.59
70867;HTU21D;58487;53.474;49.470;2022-07-03T03:17:50;18.93;68.23
70867;HTU21D;58487;53.474;49.470;2022-07-03T03:20:17;18.95;68.29
70867;HTU21D;58487;53.474;49.470;2022-07-03T03:25:36;19.33;66.76
70867;HTU21D;58487;53.474;49.470;2022-07-03T03:28:03;19.66;65.97
70867;HTU21D;58487;53.474;49.470;2022-07-03T03:30:29;19.71;66.06
70867;HTU21D;58487;53.474;49.470;2022-07-03T03:32:56;19.60;66.62
70867;HTU21D;58487;53.474;49.470;2022-07-03T03:35:22;19.63;67.25
70867;HTU21D;58487;53.474;49.470;2022-07-03T03:37:48;19.44;68.57
70867;HTU21D;58487;53.474;49.470;2022-07-03T03:40:17;19.39;69.45
70867;HTU21D;58487;53.474;49.470;2022-07-03T03:42:43;19.29;69.42
70867;HTU21D;58487;53.474;49.470;2022-07-03T03:45:10;19.30;68.82
70867;HTU21D;58487;53.474;49.470;2022-07-03T03:47:36;19.36;65.42
70867;HTU21D;58487;53.474;49.470;2022-07-03T03:50:04;19.33;65.26
70867;HTU21D;58487;53.474;49.470;2022-07-03T03:52:30;19.36;64.71
70867;HTU21D;58487;53.474;49.470;2022-07-03T03:54:57;19.43;64.28
70867;HTU21D;58487;53.474;49.470;2022-07-03T03:57:24;19.33;64.05
70867;HTU21D;58487;53.474;49.470;2022-07-03T03:59:51;19.28;65.06
70867;HTU21D;58487;53.474;49.470;2022-07-03T04:02:18;19.26;65.30
70867;HTU21D;58487;53.474;49.470;2022-07-03T04:04:45;19.22;64.02
70867;HTU21D;58487;53.474;49.470;2022-07-03T04:07:11;19.09;64.11
70867;HTU21D;58487;53.474;49.470;2022-07-03T04:09:37;18.94;64.72
70867;HTU21D;58487;53.474;49.470;2022-07-03T04:12:04;19.06;65.38
70867;HTU21D;58487;53.474;49.470;2022-07-03T04:14:30;19.13;65.33
70867;HTU21D;58487;53.474;49.470;2022-07-03T04:16:56;19.24;65.31
70867;HTU21D;58487;53.474;49.470;2022-07-03T04:19:23;19.32;65.67
70867;HTU21D;58487;53.474;49.470;2022-07-03T04:21:49;19.31;65.43
70867;HTU21D;58487;53.474;49.470;2022-07-03T04:24:18;19.30;65.68
70867;HTU21D;58487;53.474;49.470;2022-07-03T04:26:44;19.37;65.50
70867;HTU21D;58487;53.474;49.470;2022-07-03T04:29:10;19.37;65.33
70867;HTU21D;58487;53.474;49.470;2022-07-03T04:31:36;19.31;65.52
70867;HTU21D;58487;53.474;49.470;2022-07-03T04:34:03;19.37;65.01
70867;HTU21D;58487;53.474;49.470;2022-07-03T04:36:29;19.41;64.61
70867;HTU21D;58487;53.474;49.470;2022-07-03T04:38:55;19.56;64.14
70867;HTU21D;58487;53.474;49.470;2022-07-03T04:41:21;19.54;64.05
70867;HTU21D;58487;53.474;49.470;2022-07-03T04:43:47;19.58;64.00
70867;HTU21D;58487;53.474;49.470;2022-07-03T04:46:13;19.68;63.46
70867;HTU21D;58487;53.474;49.470;2022-07-03T04:48:40;19.86;63.23
70867;HTU21D;58487;53.474;49.470;2022-07-03T04:51:06;19.90;62.95
70867;HTU21D;58487;53.474;49.470;2022-07-03T04:53:32;19.90;63.03
70867;HTU21D;58487;53.474;49.470;2022-07-03T04:55:58;19.96;62.72
70867;HTU21D;58487;53.474;49.470;2022-07-03T04:58:24;20.01;62.28
70867;HTU21D;58487;53.474;49.470;2022-07-03T05:00:51;20.18;61.44
70867;HTU21D;58487;53.474;49.470;2022-07-03T05:03:17;20.05;61.20
70867;HTU21D;58487;53.474;49.470;2022-07-03T05:05:43;20.07;61.47
70867;HTU21D;58487;53.474;49.470;2022-07-03T05:08:09;20.17;60.95
70867;HTU21D;58487;53.474;49.470;2022-07-03T05:10:35;20.42;60.57
70867;HTU21D;58487;53.474;49.470;2022-07-03T05:13:01;20.40;59.49
70867;HTU21D;58487;53.474;49.470;2022-07-03T05:15:27;20.33;59.44
70867;HTU21D;58487;53.474;49.470;2022-07-03T05:17:53;20.15;60.11
70867;HTU21D;58487;53.474;49.470;2022-07-03T05:20:19;20.13;60.48
70867;HTU21D;58487;53.474;49.470;2022-07-03T05:22:57;20.18;60.70
70867;HTU21D;58487;53.474;49.470;2022-07-03T05:25:24;20.29;60.72
70867;HTU21D;58487;53.474;49.470;2022-07-03T05:27:51;20.42;60.19
70867;HTU21D;58487;53.474;49.470;2022-07-03T05:30:24;20.41;60.32
70867;HTU21D;58487;53.474;49.470;2022-07-03T05:32:52;20.53;60.10
70867;HTU21D;58487;53.474;49.470;2022-07-03T05:35:18;20.65;59.90
70867;HTU21D;58487;53.474;49.470;2022-07-03T05:37:44;20.76;59.35
70867;HTU21D;58487;53.474;49.470;2022-07-03T05:40:11;20.86;59.17
70867;HTU21D;58487;53.474;49.470;2022-07-03T05:42:37;20.88;58.77
70867;HTU21D;58487;53.474;49.470;2022-07-03T05:45:03;20.93;58.35
70867;HTU21D;58487;53.474;49.470;2022-07-03T05:47:30;20.98;58.57
70867;HTU21D;58487;53.474;49.470;2022-07-03T05:49:56;21.13;58.14
70867;HTU21D;58487;53.474;49.470;2022-07-03T05:52:22;20.96;57.92
70867;HTU21D;58487;53.474;49.470;2022-07-03T05:54:48;20.94;58.45
70867;HTU21D;58487;53.474;49.470;2022-07-03T05:57:15;21.08;58.33
70867;HTU21D;58487;53.474;49.470;2022-07-03T05:59:41;21.15;57.06
70867;HTU21D;58487;53.474;49.470;2022-07-03T06:02:07;21.16;56.73
70867;HTU21D;58487;53.474;49.470;2022-07-03T06:04:33;21.24;56.73
70867;HTU21D;58487;53.474;49.470;2022-07-03T06:06:59;21.47;56.52
70867;HTU21D;58487;53.474;49.470;2022-07-03T06:09:25;21.38;56.08
70867;HTU21D;58487;53.474;49.470;2022-07-03T06:11:51;21.45;56.15
70867;HTU21D;58487;53.474;49.470;2022-07-03T06:14:17;21.64;56.23
70867;HTU21D;58487;53.474;49.470;2022-07-03T06:16:44;21.48;56.59
70867;HTU21D;58487;53.474;49.470;2022-07-03T06:19:10;21.52;56.85
70867;HTU21D;58487;53.474;49.470;2022-07-03T06:21:36;21.66;56.33
70867;HTU21D;58487;53.474;49.470;2022-07-03T06:24:02;21.79;56.45
70867;HTU21D;58487;53.474;49.470;2022-07-03T06:26:28;21.81;55.52
70867;HTU21D;58487;53.474;49.470;2022-07-03T06:28:55;21.87;55.76
70867;HTU21D;58487;53.474;49.470;2022-07-03T06:31:21;21.93;55.65
70867;HTU21D;58487;53.474;49.470;2022-07-03T06:33:47;22.08;55.47
70867;HTU21D;58487;53.474;49.470;2022-07-03T06:36:14;22.21;54.91
70867;HTU21D;58487;53.474;49.470;2022-07-03T06:38:40;22.32;54.87
70867;HTU21D;58487;53.474;49.470;2022-07-03T06:41:06;22.37;54.12
70867;HTU21D;58487;53.474;49.470;2022-07-03T06:43:32;22.47;53.62
70867;HTU21D;58487;53.474;49.470;2022-07-03T06:45:59;22.58;53.04
70867;HTU21D;58487;53.474;49.470;2022-07-03T06:48:25;22.55;53.65
70867;HTU21D;58487;53.474;49.470;2022-07-03T06:50:51;22.70;53.68
70867;HTU21D;58487;53.474;49.470;2022-07-03T06:53:17;22.73;53.21
70867;HTU21D;58487;53.474;49.470;2022-07-03T06:55:44;22.84;52.18
70867;HTU21D;58487;53.474;49.470;2022-07-03T06:58:10;22.98;51.76
70867;HTU21D;58487;53.474;49.470;2022-07-03T07:00:36;23.09;50.95
70867;HTU21D;58487;53.474;49.470;2022-07-03T07:03:04;23.28;50.32
70867;HTU21D;58487;53.474;49.470;2022-07-03T07:05:30;23.37;49.53
70867;HTU21D;58487;53.474;49.470;2022-07-03T07:07:56;23.16;49.11
70867;HTU21D;58487;53.474;49.470;2022-07-03T07:10:22;23.31;49.90
70867;HTU21D;58487;53.474;49.470;2022-07-03T07:12:48;23.34;49.57
70867;HTU21D;58487;53.474;49.470;2022-07-03T07:15:15;23.42;48.92
70867;HTU21D;58487;53.474;49.470;2022-07-03T07:17:41;23.44;49.34
70867;HTU21D;58487;53.474;49.470;2022-07-03T07:20:08;23.55;48.82
70867;HTU21D;58487;53.474;49.470;2022-07-03T07:22:34;23.59;49.10
70867;HTU21D;58487;53.474;49.470;2022-07-03T07:25:01;23.70;48.66
70867;HTU21D;58487;53.474;49.470;2022-07-03T07:27:27;23.69;48.70
70867;HTU21D;58487;53.474;49.470;2022-07-03T07:29:53;23.69;47.05
70867;HTU21D;58487;53.474;49.470;2022-07-03T07:32:19;23.73;47.93
70867;HTU21D;58487;53.474;49.470;2022-07-03T07:34:45;23.81;47.34
70867;HTU21D;58487;53.474;49.470;2022-07-03T07:37:11;23.91;47.53
70867;HTU21D;58487;53.474;49.470;2022-07-03T07:39:38;24.19;46.47
70867;HTU21D;58487;53.474;49.470;2022-07-03T07:42:04;24.20;46.44
70867;HTU21D;58487;53.474;49.470;2022-07-03T07:44:30;24.18;46.38
70867;HTU21D;58487;53.474;49.470;2022-07-03T07:46:56;24.20;45.89
70867;HTU21D;58487;53.474;49.470;2022-07-03T07:49:22;24.21;45.57
70867;HTU21D;58487;53.474;49.470;2022-07-03T07:51:48;24.28;45.96
70867;HTU21D;58487;53.474;49.470;2022-07-03T07:54:14;24.46;45.51
70867;HTU21D;58487;53.474;49.470;2022-07-03T07:56:40;24.55;45.54
70867;HTU21D;58487;53.474;49.470;2022-07-03T07:59:07;24.55;45.17
70867;HTU21D;58487;53.474;49.470;2022-07-03T08:01:33;24.38;43.03
70867;HTU21D;58487;53.474;49.470;2022-07-03T08:04:17;24.35;43.11
70867;HTU21D;58487;53.474;49.470;2022-07-03T08:07:06;24.44;42.71
70867;HTU21D;58487;53.474;49.470;2022-07-03T08:09:32;24.43;43.61
70867;HTU21D;58487;53.474;49.470;2022-07-03T08:11:58;24.49;44.33
70867;HTU21D;58487;53.474;49.470;2022-07-03T08:14:24;24.56;43.50
70867;HTU21D;58487;53.474;49.470;2022-07-03T08:16:50;24.62;43.62
70867;HTU21D;58487;53.474;49.470;2022-07-03T08:19:17;24.59;44.50
70867;HTU21D;58487;53.474;49.470;2022-07-03T08:21:43;24.55;43.41
70867;HTU21D;58487;53.474;49.470;2022-07-03T08:24:09;24.59;43.31
70867;HTU21D;58487;53.474;49.470;2022-07-03T08:26:37;24.61;41.80
70867;HTU21D;58487;53.474;49.470;2022-07-03T08:29:03;24.55;40.10
70867;HTU21D;58487;53.474;49.470;2022-07-03T08:31:29;24.68;40.42
70867;HTU21D;58487;53.474;49.470;2022-07-03T08:33:55;24.80;40.20
70867;HTU21D;58487;53.474;49.470;2022-07-03T08:36:21;24.80;40.07
70867;HTU21D;58487;53.474;49.470;2022-07-03T08:38:47;24.77;40.26
70867;HTU21D;58487;53.474;49.470;2022-07-03T08:41:14;24.84;41.04
70867;HTU21D;58487;53.474;49.470;2022-07-03T08:43:42;24.87;42.07
70867;HTU21D;58487;53.474;49.470;2022-07-03T08:46:10;25.03;42.13
70867;HTU21D;58487;53.474;49.470;2022-07-03T08:48:37;24.99;41.07
70867;HTU21D;58487;53.474;49.470;2022-07-03T08:51:03;24.95;40.43
70867;HTU21D;58487;53.474;49.470;2022-07-03T08:53:29;24.80;40.13
70867;HTU21D;58487;53.474;49.470;2022-07-03T08:55:56;24.78;39.92
70867;HTU21D;58487;53.474;49.470;2022-07-03T08:58:23;24.69;39.55
70867;HTU21D;58487;53.474;49.470;2022-07-03T09:00:49;24.65;39.88
70867;HTU21D;58487;53.474;49.470;2022-07-03T09:03:15;24.76;40.05
70867;HTU21D;58487;53.474;49.470;2022-07-03T09:05:42;24.83;40.13
70867;HTU21D;58487;53.474;49.470;2022-07-03T09:08:09;24.89;39.60
70867;HTU21D;58487;53.474;49.470;2022-07-03T09:10:35;24.88;39.85
70867;HTU21D;58487;53.474;49.470;2022-07-03T09:13:02;24.80;39.85
70867;HTU21D;58487;53.474;49.470;2022-07-03T09:15:28;24.91;39.97
70867;HTU21D;58487;53.474;49.470;2022-07-03T09:18:01;25.12;39.12
70867;HTU21D;58487;53.474;49.470;2022-07-03T09:20:34;25.12;39.71
70867;HTU21D;58487;53.474;49.470;2022-07-03T09:25:53;25.52;38.65
70867;HTU21D;58487;53.474;49.470;2022-07-03T09:28:24;25.77;39.51
70867;HTU21D;58487;53.474;49.470;2022-07-03T09:31:00;25.78;38.50
70867;HTU21D;58487;53.474;49.470;2022-07-03T09:33:27;25.54;39.85
70867;HTU21D;58487;53.474;49.470;2022-07-03T09:35:54;25.60;38.96
70867;HTU21D;58487;53.474;49.470;2022-07-03T09:38:21;25.59;39.32
70867;HTU21D;58487;53.474;49.470;2022-07-03T09:40:55;25.59;38.63
70867;HTU21D;58487;53.474;49.470;2022-07-03T09:43:29;25.47;38.17
70867;HTU21D;58487;53.474;49.470;2022-07-03T09:46:01;25.53;38.48
70867;HTU21D;58487;53.474;49.470;2022-07-03T09:48:41;25.53;38.98
70867;HTU21D;58487;53.474;49.470;2022-07-03T09:53:56;25.39;40.32
70867;HTU21D;58487;53.474;49.470;2022-07-03T09:56:27;25.46;40.34
70867;HTU21D;58487;53.474;49.470;2022-07-03T09:59:14;25.40;39.67
70867;HTU21D;58487;53.474;49.470;2022-07-03T10:01:42;25.21;39.92
70867;HTU21D;58487;53.474;49.470;2022-07-03T10:04:19;25.25;39.68
70867;HTU21D;58487;53.474;49.470;2022-07-03T10:09:17;25.38;38.59
70867;HTU21D;58487;53.474;49.470;2022-07-03T10:11:44;25.43;38.57
70867;HTU21D;58487;53.474;49.470;2022-07-03T10:14:15;25.68;38.49
70867;HTU21D;58487;53.474;49.470;2022-07-03T10:16:42;25.91;38.87
70867;HTU21D;58487;53.474;49.470;2022-07-03T10:19:14;25.87;38.04
70867;HTU21D;58487;53.474;49.470;2022-07-03T10:21:43;25.71;37.75
70867;HTU21D;58487;53.474;49.470;2022-07-03T10:24:11;25.47;37.08
70867;HTU21D;58487;53.474;49.470;2022-07-03T10:26:39;25.39;37.75
70867;HTU21D;58487;53.474;49.470;2022-07-03T10:29:07;25.49;38.23
70867;HTU21D;58487;53.474;49.470;2022-07-03T10:31:35;25.34;39.23
70867;HTU21D;58487;53.474;49.470;2022-07-03T10:34:01;25.22;39.97
70867;HTU21D;58487;53.474;49.470;2022-07-03T10:36:28;25.22;39.82
70867;HTU21D;58487;53.474;49.470;2022-07-03T10:38:57;25.23;39.33
70867;HTU21D;58487;53.474;49.470;2022-07-03T10:41:39;25.14;39.72
70867;HTU21D;58487;53.474;49.470;2022-07-03T10:44:24;25.16;40.03
70867;HTU21D;58487;53.474;49.470;2022-07-03T10:47:37;25.21;40.35
70867;HTU21D;58487;53.474;49.470;2022-07-03T10:50:09;25.32;40.09
70867;HTU21D;58487;53.474;49.470;2022-07-03T10:52:36;25.34;40.13
70867;HTU21D;58487;53.474;49.470;2022-07-03T10:55:02;25.73;39.34
70867;HTU21D;58487;53.474;49.470;2022-07-03T10:57:28;25.82;39.56
70867;HTU21D;58487;53.474;49.470;2022-07-03T10:59:55;26.03;39.65
70867;HTU21D;58487;53.474;49.470;2022-07-03T11:05:07;26.80;38.01
70867;HTU21D;58487;53.474;49.470;2022-07-03T11:07:44;26.53;37.01
70867;HTU21D;58487;53.474;49.470;2022-07-03T11:10:29;26.34;35.79
70867;HTU21D;58487;53.474;49.470;2022-07-03T11:13:08;26.42;35.53
70867;HTU21D;58487;53.474;49.470;2022-07-03T11:15:42;26.13;35.67
70867;HTU21D;58487;53.474;49.470;2022-07-03T11:25:47;25.81;36.63
70867;HTU21D;58487;53.474;49.470;2022-07-03T11:33:42;27.65;32.94
70867;HTU21D;58487;53.474;49.470;2022-07-03T11:38:46;28.13;31.44
70867;HTU21D;58487;53.474;49.470;2022-07-03T11:41:15;28.14;32.45
70867;HTU21D;58487;53.474;49.470;2022-07-03T11:43:49;28.08;32.28
70867;HTU21D;58487;53.474;49.470;2022-07-03T11:46:20;27.64;32.88
70867;HTU21D;58487;53.474;49.470;2022-07-03T11:48:47;27.22;32.60
70867;HTU21D;58487;53.474;49.470;2022-07-03T11:51:14;26.96;32.79
70867;HTU21D;58487;53.474;49.470;2022-07-03T11:53:40;26.83;33.12
70867;HTU21D;58487;53.474;49.470;2022-07-03T11:56:16;26.69;33.63
70867;HTU21D;58487;53.474;49.470;2022-07-03T11:58:47;26.53;34.02
70867;HTU21D;58487;53.474;49.470;2022-07-03T12:04:06;26.20;35.02
70867;HTU21D;58487;53.474;49.470;2022-07-03T12:06:47;26.19;35.14
70867;HTU21D;58487;53.474;49.470;2022-07-03T12:09:21;26.20;35.16
70867;HTU21D;58487;53.474;49.470;2022-07-03T12:11:58;26.56;34.40
70867;HTU21D;58487;53.474;49.470;2022-07-03T12:14:44;26.65;34.42
70867;HTU21D;58487;53.474;49.470;2022-07-03T12:19:49;26.47;35.24
70867;HTU21D;58487;53.474;49.470;2022-07-03T12:25:09;26.22;35.88
70867;HTU21D;58487;53.474;49.470;2022-07-03T12:27:38;26.10;35.51
70867;HTU21D;58487;53.474;49.470;2022-07-03T12:30:10;26.01;35.95
70867;HTU21D;58487;53.474;49.470;2022-07-03T12:32:38;26.06;35.93
70867;HTU21D;58487;53.474;49.470;2022-07-03T12:35:05;26.19;35.47
70867;HTU21D;58487;53.474;49.470;2022-07-03T12:37:35;26.13;34.05
70867;HTU21D;58487;53.474;49.470;2022-07-03T12:40:03;26.24;34.39
70867;HTU21D;58487;53.474;49.470;2022-07-03T12:42:29;26.76;33.69
70867;HTU21D;58487;53.474;49.470;2022-07-03T12:45:03;27.51;32.81
70867;HTU21D;58487;53.474;49.470;2022-07-03T12:47:31;27.90;32.11
70867;HTU21D;58487;53.474;49.470;2022-07-03T12:50:02;27.74;31.93
70867;HTU21D;58487;53.474;49.470;2022-07-03T12:52:30;27.34;33.01
70867;HTU21D;58487;53.474;49.470;2022-07-03T12:54:57;27.09;32.80
70867;HTU21D;58487;53.474;49.470;2022-07-03T12:57:24;27.00;32.21
70867;HTU21D;58487;53.474;49.470;2022-07-03T13:00:15;27.11;32.01
70867;HTU21D;58487;53.474;49.470;2022-07-03T13:02:47;26.99;31.86
70867;HTU21D;58487;53.474;49.470;2022-07-03T13:05:14;27.44;30.76
70867;HTU21D;58487;53.474;49.470;2022-07-03T13:07:41;27.38;31.12
70867;HTU21D;58487;53.474;49.470;2022-07-03T13:10:08;27.19;31.65
70867;HTU21D;58487;53.474;49.470;2022-07-03T13:12:34;27.12;31.49
70867;HTU21D;58487;53.474;49.470;2022-07-03T13:15:10;27.66;30.43
70867;HTU21D;58487;53.474;49.470;2022-07-03T13:20:21;27.52;31.27
70867;HTU21D;58487;53.474;49.470;2022-07-03T13:22:48;27.16;31.50
70867;HTU21D;58487;53.474;49.470;2022-07-03T13:25:14;26.77;31.94
70867;HTU21D;58487;53.474;49.470;2022-07-03T13:27:40;26.66;32.38
70867;HTU21D;58487;53.474;49.470;2022-07-03T13:30:09;26.61;32.16
70867;HTU21D;58487;53.474;49.470;2022-07-03T13:32:38;26.61;32.40
70867;HTU21D;58487;53.474;49.470;2022-07-03T13:35:05;26.72;32.43
70867;HTU21D;58487;53.474;49.470;2022-07-03T13:37:33;26.83;32.34
70867;HTU21D;58487;53.474;49.470;2022-07-03T13:40:00;26.76;32.51
70867;HTU21D;58487;53.474;49.470;2022-07-03T13:42:27;27.04;32.04
70867;HTU21D;58487;53.474;49.470;2022-07-03T13:44:53;28.00;29.96
70867;HTU21D;58487;53.474;49.470;2022-07-03T13:47:19;28.65;28.87
70867;HTU21D;58487;53.474;49.470;2022-07-03T13:49:45;29.11;27.70
70867;HTU21D;58487;53.474;49.470;2022-07-03T13:56:29;29.93;27.06
70867;HTU21D;58487;53.474;49.470;2022-07-03T13:58:55;29.58;26.49
70867;HTU21D;58487;53.474;49.470;2022-07-03T14:01:21;29.54;26.86
70867;HTU21D;58487;53.474;49.470;2022-07-03T14:03:48;29.62;26.56
70867;HTU21D;58487;53.474;49.470;2022-07-03T14:06:14;30.01;26.39
70867;HTU21D;58487;53.474;49.470;2022-07-03T14:08:40;30.00;26.49
70867;HTU21D;58487;53.474;49.470;2022-07-03T14:11:07;29.93;26.84
70867;HTU21D;58487;53.474;49.470;2022-07-03T14:13:33;29.35;27.97
70867;HTU21D;58487;53.474;49.470;2022-07-03T14:16:02;29.85;26.89
70867;HTU21D;58487;53.474;49.470;2022-07-03T14:18:28;29.98;27.07
70867;HTU21D;58487;53.474;49.470;2022-07-03T14:20:54;30.33;26.70
70867;HTU21D;58487;53.474;49.470;2022-07-03T14:23:20;30.20;26.59
70867;HTU21D;58487;53.474;49.470;2022-07-03T14:25:46;30.57;26.46
70867;HTU21D;58487;53.474;49.470;2022-07-03T14:28:13;30.62;25.97
70867;HTU21D;58487;53.474;49.470;2022-07-03T14:30:57;30.15;26.30
70867;HTU21D;58487;53.474;49.470;2022-07-03T14:33:41;30.28;26.22
70867;HTU21D;58487;53.474;49.470;2022-07-03T14:36:07;30.33;26.27
70867;HTU21D;58487;53.474;49.470;2022-07-03T14:38:34;30.66;26.00
70867;HTU21D;58487;53.474;49.470;2022-07-03T14:41:00;30.40;25.98
70867;HTU21D;58487;53.474;49.470;2022-07-03T14:43:26;30.59;25.65
70867;HTU21D;58487;53.474;49.470;2022-07-03T14:45:52;30.01;25.24
70867;HTU21D;58487;53.474;49.470;2022-07-03T14:52:31;29.86;25.52
70867;HTU21D;58487;53.474;49.470;2022-07-03T14:54:57;29.61;25.68
70867;HTU21D;58487;53.474;49.470;2022-07-03T15:05:12;29.50;26.97
70867;HTU21D;58487;53.474;49.470;2022-07-03T15:10:34;28.85;28.16
70867;HTU21D;58487;53.474;49.470;2022-07-03T15:13:04;28.54;29.06
70867;HTU21D;58487;53.474;49.470;2022-07-03T15:15:32;28.32;29.45
70867;HTU21D;58487;53.474;49.470;2022-07-03T15:17:59;28.32;29.44
70867;HTU21D;58487;53.474;49.470;2022-07-03T15:20:31;28.30;29.85
70867;HTU21D;58487;53.474;49.470;2022-07-03T15:23:00;28.28;29.87
70867;HTU21D;58487;53.474;49.470;2022-07-03T15:25:28;28.09;30.26
70867;HTU21D;58487;53.474;49.470;2022-07-03T15:27:55;28.13;30.05
70867;HTU21D;58487;53.474;49.470;2022-07-03T15:30:22;28.18;30.16
70867;HTU21D;58487;53.474;49.470;2022-07-03T15:32:50;28.05;30.40
70867;HTU21D;58487;53.474;49.470;2022-07-03T15:35:18;27.90;30.61
70867;HTU21D;58487;53.474;49.470;2022-07-03T15:38:20;27.71;31.24
70867;HTU21D;58487;53.474;49.470;2022-07-03T15:40:53;27.63;31.22
70867;HTU21D;58487;53.474;49.470;2022-07-03T15:49:05;27.30;32.05
70867;HTU21D;58487;53.474;49.470;2022-07-03T15:51:50;27.11;32.20
70867;HTU21D;58487;53.474;49.470;2022-07-03T15:54:51;26.75;32.64
70867;HTU21D;58487;53.474;49.470;2022-07-03T15:57:25;26.61;33.18
70867;HTU21D;58487;53.474;49.470;2022-07-03T16:00:03;26.43;33.57
70867;HTU21D;58487;53.474;49.470;2022-07-03T16:02:38;26.34;34.10
70867;HTU21D;58487;53.474;49.470;2022-07-03T16:05:18;26.23;34.31
70867;HTU21D;58487;53.474;49.470;2022-07-03T16:07:46;26.18;34.41
70867;HTU21D;58487;53.474;49.470;2022-07-03T16:10:13;26.08;34.66
70867;HTU21D;58487;53.474;49.470;2022-07-03T16:12:41;25.99;34.98
70867;HTU21D;58487;53.474;49.470;2022-07-03T16:15:10;26.10;34.63
70867;HTU21D;58487;53.474;49.470;2022-07-03T16:17:36;26.05;34.56
70867;HTU21D;58487;53.474;49.470;2022-07-03T16:20:04;25.99;34.79
70867;HTU21D;58487;53.474;49.470;2022-07-03T16:22:33;25.92;35.21
70867;HTU21D;58487;53.474;49.470;2022-07-03T16:25:01;25.76;35.53
70867;HTU21D;58487;53.474;49.470;2022-07-03T16:27:27;25.60;35.90
70867;HTU21D;58487;53.474;49.470;2022-07-03T16:29:54;25.61;36.09
70867;HTU21D;58487;53.474;49.470;2022-07-03T16:32:33;25.47;37.09
70867;HTU21D;58487;53.474;49.470;2022-07-03T16:35:03;25.40;37.11
70867;HTU21D;58487;53.474;49.470;2022-07-03T16:37:39;25.34;37.68
70867;HTU21D;58487;53.474;49.470;2022-07-03T16:40:08;25.25;37.50
70867;HTU21D;58487;53.474;49.470;2022-07-03T16:42:36;25.16;38.12
70867;HTU21D;58487;53.474;49.470;2022-07-03T16:45:08;25.00;39.10
70867;HTU21D;58487;53.474;49.470;2022-07-03T16:47:43;24.93;39.45